Time;durP1;ratioP1;P1;durP2;ratioP2;P2;SDS_P1;SDS_P2;PMS_P1;PMS_P2;Temp;Humidity;BMP_temperature;BMP_pressure;BME280_temperature;BME280_humidity;BME280_pressure;Samples;Min_cycle;Max_cycle;Signal;HPM_P1;HPM_P2
2022/09/14 00:02:22;;;;;;;5.13;1.20;;;;;;;13.24;100.00;99920.44;5180309;28;20044;-77
2022/09/14 00:04:53;;;;;;;7.03;1.20;;;;;;;13.14;100.00;99917.50;5181533;28;20029;-76
2022/09/14 00:07:23;;;;;;;5.13;1.17;;;;;;;13.06;100.00;99914.44;5180269;28;20033;-76
2022/09/14 00:09:54;;;;;;;6.13;1.17;;;;;;;13.28;100.00;99914.09;5179761;28;20037;-75
2022/09/14 00:12:24;;;;;;;3.42;1.10;;;;;;;13.35;100.00;99907.53;5190434;28;20036;-76
2022/09/14 00:14:55;;;;;;;6.03;1.45;;;;;;;13.36;100.00;99914.47;5188462;28;20104;-77
2022/09/14 00:17:25;;;;;;;3.28;1.10;;;;;;;13.49;100.00;99904.97;5180957;28;20464;-73
2022/09/14 00:19:56;;;;;;;6.50;1.30;;;;;;;13.24;100.00;99902.91;5166700;28;20137;-77
2022/09/14 00:22:26;;;;;;;7.32;1.58;;;;;;;13.06;100.00;99898.72;5178953;28;20092;-77
2022/09/14 00:24:56;;;;;;;5.65;1.40;;;;;;;12.83;100.00;99908.75;5180264;28;20045;-77
2022/09/14 00:27:26;;;;;;;7.30;1.30;;;;;;;12.75;100.00;99907.47;5179843;28;20506;-76
2022/09/14 00:29:57;;;;;;;5.78;1.13;;;;;;;12.76;100.00;99904.78;5179144;28;20030;-76
2022/09/14 00:32:27;;;;;;;7.85;1.30;;;;;;;12.80;100.00;99897.59;5180523;28;20017;-75
2022/09/14 00:34:57;;;;;;;7.05;1.35;;;;;;;12.72;100.00;99905.03;5197671;23;20057;-74
2022/09/14 00:37:28;;;;;;;4.32;1.20;;;;;;;12.59;100.00;99898.75;5168879;28;20027;-74
2022/09/14 00:39:58;;;;;;;4.65;1.40;;;;;;;12.84;100.00;99899.97;5170407;28;20061;-75
2022/09/14 00:42:28;;;;;;;4.22;1.38;;;;;;;12.98;100.00;99907.94;5169922;28;20034;-74
2022/09/14 00:45:14;;;;;;;5.75;1.30;;;;;;;12.88;100.00;99906.75;5174856;28;20083;-75
2022/09/14 00:47:48;;;;;;;3.90;1.55;;;;;;;12.84;100.00;99907.81;5170951;28;20080;-73
2022/09/14 00:50:19;;;;;;;4.82;1.55;;;;;;;12.98;100.00;99902.69;5169233;28;20038;-75
2022/09/14 00:52:50;;;;;;;7.40;1.67;;;;;;;12.77;100.00;99893.38;5171522;28;20439;-74
2022/09/14 00:55:22;;;;;;;8.77;1.65;;;;;;;12.64;100.00;99902.84;5168455;28;20030;-74
2022/09/14 00:57:53;;;;;;;8.63;1.60;;;;;;;12.66;100.00;99900.97;5170107;28;20113;-74
2022/09/14 01:00:26;;;;;;;3.60;1.40;;;;;;;12.89;100.00;99893.53;5167909;28;20113;-74
2022/09/14 01:02:56;;;;;;;8.05;1.77;;;;;;;12.89;100.00;99892.69;5165673;28;20033;-72
2022/09/14 01:06:09;;;;;;;6.50;1.58;;;;;;;12.77;100.00;99884.69;5150106;28;20540;-74
2022/09/14 01:09:04;;;;;;;4.78;1.35;;;;;;;12.75;100.00;99890.00;5147939;28;20151;-74
2022/09/14 01:11:46;;;;;;;6.35;1.40;;;;;;;12.80;100.00;99882.72;5172924;28;20100;-74
2022/09/14 01:14:28;;;;;;;7.10;1.73;;;;;;;12.85;100.00;99890.31;5174077;28;20044;-74
2022/09/14 01:17:07;;;;;;;5.38;1.48;;;;;;;12.71;100.00;99880.59;5174627;28;20034;-74
2022/09/14 01:19:38;;;;;;;6.45;1.50;;;;;;;12.82;100.00;99886.09;5168542;28;20026;-75
2022/09/14 01:22:17;;;;;;;4.20;1.10;;;;;;;12.66;100.00;99880.00;5170258;28;20397;-74
2022/09/14 01:24:53;;;;;;;5.60;1.50;;;;;;;12.58;100.00;99887.44;5169822;28;20279;-75
2022/09/14 01:27:34;;;;;;;3.45;1.17;;;;;;;12.65;100.00;99883.56;5166146;28;20040;-74
2022/09/14 01:30:08;;;;;;;5.03;1.60;;;;;;;12.45;100.00;99881.19;5164739;28;20022;-74
2022/09/14 01:32:48;;;;;;;9.50;1.52;;;;;;;12.50;100.00;99871.28;5168685;28;20634;-74
2022/09/14 01:35:29;;;;;;;4.07;1.40;;;;;;;12.60;100.00;99877.72;5168488;28;20022;-74
2022/09/14 01:38:06;;;;;;;9.85;1.48;;;;;;;12.50;100.00;99873.06;5163334;28;20443;-74
2022/09/14 01:40:46;;;;;;;5.15;1.23;;;;;;;12.49;100.00;99882.69;5171409;28;20038;-75
2022/09/14 01:43:36;;;;;;;5.75;1.35;;;;;;;12.47;100.00;99894.22;5176215;28;20120;-74
2022/09/14 01:46:12;;;;;;;5.40;1.60;;;;;;;12.48;100.00;99888.88;5176836;28;20038;-74
2022/09/14 01:49:01;;;;;;;5.97;1.48;;;;;;;12.38;100.00;99885.06;5166477;28;20026;-75
2022/09/14 01:51:40;;;;;;;11.93;1.70;;;;;;;12.48;100.00;99885.41;5164771;28;20512;-74
2022/09/14 01:54:19;;;;;;;5.40;1.40;;;;;;;12.38;100.00;99887.69;5168696;28;20538;-73
2022/09/14 01:57:01;;;;;;;5.80;1.83;;;;;;;12.32;100.00;99890.63;5167881;28;20026;-74
2022/09/14 01:59:38;;;;;;;3.10;1.40;;;;;;;12.33;100.00;99900.16;5163557;28;20022;-74
2022/09/14 02:02:10;;;;;;;6.50;1.38;;;;;;;12.46;100.00;99882.88;5169293;28;20026;-75
2022/09/14 02:04:47;;;;;;;5.97;1.48;;;;;;;12.29;100.00;99879.47;5168401;28;20550;-74
2022/09/14 02:07:18;;;;;;;10.10;1.85;;;;;;;12.41;100.00;99874.41;5167066;28;20528;-74
2022/09/14 02:09:51;;;;;;;8.40;1.70;;;;;;;12.39;100.00;99875.41;5169065;28;20479;-74
2022/09/14 02:12:22;;;;;;;6.88;1.70;;;;;;;12.24;100.00;99871.84;5178319;28;20029;-74
2022/09/14 02:14:53;;;;;;;6.05;1.67;;;;;;;12.31;100.00;99867.97;5175962;28;20022;-74
2022/09/14 02:17:23;;;;;;;4.95;1.40;;;;;;;12.23;100.00;99866.69;5172030;28;20038;-73
2022/09/14 02:19:57;;;;;;;5.03;1.50;;;;;;;12.11;100.00;99860.31;5168827;28;20080;-75
2022/09/14 02:22:29;;;;;;;4.38;1.40;;;;;;;12.04;100.00;99852.88;5163204;28;20053;-74
2022/09/14 02:24:59;;;;;;;4.20;1.85;;;;;;;12.15;100.00;99848.75;5169451;28;20092;-74
2022/09/14 02:27:29;;;;;;;5.75;1.38;;;;;;;12.03;100.00;99851.19;5165983;28;20034;-74
2022/09/14 02:30:00;;;;;;;5.35;1.58;;;;;;;11.95;100.00;99843.72;5168308;28;20546;-75
2022/09/14 02:32:51;;;;;;;6.38;1.60;;;;;;;12.00;100.00;99851.34;5165253;28;20026;-74
2022/09/14 02:35:39;;;;;;;6.93;1.60;;;;;;;11.98;100.00;99861.91;5166779;28;20061;-75
2022/09/14 02:38:18;;;;;;;6.72;1.88;;;;;;;11.98;100.00;99855.81;5164506;28;20057;-74
2022/09/14 02:41:10;;;;;;;5.40;1.48;;;;;;;12.00;100.00;99860.06;5170396;28;20073;-74
2022/09/14 02:43:57;;;;;;;5.40;1.52;;;;;;;12.07;100.00;99858.81;5169392;28;20026;-74
2022/09/14 02:46:34;;;;;;;4.72;1.33;;;;;;;12.23;100.00;99864.94;5172013;28;20026;-73
2022/09/14 02:49:24;;;;;;;5.82;1.25;;;;;;;12.26;100.00;99854.28;5172352;28;20034;-73
2022/09/14 02:52:04;;;;;;;7.75;1.38;;;;;;;12.32;100.00;99859.19;5174554;28;20026;-74
2022/09/14 02:55:08;;;;;;;4.40;1.13;;;;;;;12.35;100.00;99866.91;5168827;28;20033;-74
2022/09/14 02:58:00;;;;;;;3.13;1.23;;;;;;;12.49;100.00;99859.09;5165838;28;20038;-74
2022/09/14 03:00:33;;;;;;;5.35;1.58;;;;;;;12.53;100.00;99860.66;5166669;28;20038;-74
2022/09/14 03:03:06;;;;;;;9.52;1.45;;;;;;;12.50;100.00;99858.16;5171832;28;20032;-74
2022/09/14 03:05:37;;;;;;;5.82;1.65;;;;;;;12.42;100.00;99843.78;5170921;28;20041;-73
2022/09/14 03:08:09;;;;;;;5.50;1.30;;;;;;;12.35;100.00;99843.31;5171524;28;20459;-73
2022/09/14 03:10:42;;;;;;;4.47;1.35;;;;;;;12.22;100.00;99837.03;5175375;28;20030;-74
2022/09/14 03:13:12;;;;;;;8.10;1.83;;;;;;;12.17;100.00;99839.06;5182134;28;20108;-74
2022/09/14 03:15:42;;;;;;;6.28;1.60;;;;;;;12.17;100.00;99838.22;5171106;28;20108;-74
2022/09/14 03:18:13;;;;;;;8.20;1.88;;;;;;;12.13;100.00;99831.44;5169168;28;20038;-74
2022/09/14 03:20:43;;;;;;;4.82;1.40;;;;;;;12.16;100.00;99826.88;5172215;28;20025;-74
2022/09/14 03:23:14;;;;;;;5.25;1.30;;;;;;;12.31;100.00;99825.22;5170938;28;20045;-74
2022/09/14 03:25:44;;;;;;;4.78;1.20;;;;;;;12.22;100.00;99839.66;5171876;28;20028;-74
2022/09/14 03:28:14;;;;;;;7.60;1.55;;;;;;;12.20;100.00;99832.78;5170751;28;20073;-74
2022/09/14 03:30:45;;;;;;;5.82;1.30;;;;;;;12.20;100.00;99831.03;5171198;28;20056;-74
2022/09/14 03:33:15;;;;;;;10.18;1.55;;;;;;;12.22;100.00;99834.41;5171074;28;20034;-74
2022/09/14 03:35:46;;;;;;;7.40;1.40;;;;;;;12.10;100.00;99832.44;5172245;28;20037;-74
2022/09/14 03:38:16;;;;;;;7.22;1.45;;;;;;;11.91;100.00;99823.03;5161932;28;20022;-74
2022/09/14 03:40:47;;;;;;;5.97;1.48;;;;;;;11.77;100.00;99830.78;5168018;28;20022;-74
2022/09/14 03:43:17;;;;;;;7.03;1.40;;;;;;;11.72;100.00;99820.53;5179430;28;20260;-74
2022/09/14 03:45:47;;;;;;;7.72;1.88;;;;;;;11.75;100.00;99820.38;5170269;28;20054;-75
2022/09/14 03:48:18;;;;;;;6.38;1.45;;;;;;;11.78;100.00;99824.63;5170317;28;20057;-74
2022/09/14 03:50:48;;;;;;;8.05;1.73;;;;;;;11.76;100.00;99821.25;5170465;28;20088;-74
2022/09/14 03:53:18;;;;;;;3.92;1.40;;;;;;;11.84;100.00;99817.28;5171566;28;20457;-74
2022/09/14 03:55:49;;;;;;;7.78;1.83;;;;;;;11.88;100.00;99805.72;5169942;28;20137;-74
2022/09/14 03:58:19;;;;;;;2.92;1.23;;;;;;;12.05;100.00;99812.66;5169443;28;20061;-75
2022/09/14 04:00:50;;;;;;;3.72;1.48;;;;;;;11.89;100.00;99811.78;5169846;28;20027;-74
2022/09/14 04:03:20;;;;;;;3.35;1.25;;;;;;;12.07;100.00;99810.81;5171003;28;20022;-74
2022/09/14 04:05:55;;;;;;;8.70;1.70;;;;;;;11.92;100.00;99807.25;5146226;28;20034;-75
2022/09/14 04:08:25;;;;;;;7.63;1.80;;;;;;;11.91;100.00;99799.47;5158932;28;20030;-73
2022/09/14 04:10:56;;;;;;;7.93;1.60;;;;;;;12.04;100.00;99796.13;5169242;28;20100;-73
2022/09/14 04:13:26;;;;;;;5.57;1.48;;;;;;;11.96;100.00;99792.22;5179115;28;20033;-74
2022/09/14 04:15:58;;;;;;;8.38;1.60;;;;;;;11.89;100.00;99785.59;5168627;28;20045;-74
2022/09/14 04:18:28;;;;;;;7.55;1.52;;;;;;;11.73;100.00;99785.59;5163129;28;20030;-74
2022/09/14 04:21:05;;;;;;;5.38;1.50;;;;;;;11.90;100.00;99782.91;5167927;28;20427;-75
2022/09/14 04:23:35;;;;;;;6.80;1.58;;;;;;;11.79;100.00;99780.00;5169880;28;20491;-74
2022/09/14 04:26:15;;;;;;;5.63;1.67;;;;;;;11.62;100.00;99782.69;5169939;28;20085;-74
2022/09/14 04:28:46;;;;;;;5.13;1.30;;;;;;;11.68;100.00;99784.13;5169129;28;20034;-74
2022/09/14 04:31:16;;;;;;;3.30;1.23;;;;;;;11.71;100.00;99787.44;5169597;28;20407;-75
2022/09/14 04:33:49;;;;;;;9.02;1.27;;;;;;;11.68;100.00;99785.00;5171119;28;20030;-74
2022/09/14 04:36:21;;;;;;;5.47;1.63;;;;;;;11.77;100.00;99792.34;5169301;28;20025;-74
2022/09/14 04:38:53;;;;;;;4.35;1.40;;;;;;;11.71;100.00;99794.44;5179259;28;20024;-74
2022/09/14 04:41:25;;;;;;;6.05;1.20;;;;;;;11.62;100.00;99802.78;5174883;28;20034;-75
2022/09/14 04:43:55;;;;;;;3.25;1.23;;;;;;;11.52;100.00;99794.53;5174847;28;20057;-74
2022/09/14 04:46:33;;;;;;;3.15;1.13;;;;;;;11.45;100.00;99793.13;5163699;28;20026;-75
2022/09/14 04:49:05;;;;;;;2.90;1.35;;;;;;;11.48;100.00;99792.97;5169376;28;20025;-74
2022/09/14 04:51:36;;;;;;;4.18;1.50;;;;;;;11.75;100.00;99782.91;5169395;28;20097;-74
2022/09/14 04:54:06;;;;;;;4.78;1.30;;;;;;;11.81;100.00;99778.16;5170556;28;20040;-74
2022/09/14 04:56:37;;;;;;;3.40;1.25;;;;;;;11.85;100.00;99784.09;5168250;28;20025;-74
2022/09/14 04:59:07;;;;;;;5.07;1.20;;;;;;;11.69;100.00;99789.28;5170386;28;20025;-74
2022/09/14 05:01:40;;;;;;;7.70;1.38;;;;;;;11.75;100.00;99791.56;5169668;28;20034;-74
2022/09/14 05:04:10;;;;;;;6.90;1.20;;;;;;;11.71;100.00;99782.22;5169544;28;20041;-74
2022/09/14 05:06:42;;;;;;;3.20;1.23;;;;;;;11.84;100.00;99791.13;5169600;28;20030;-71
2022/09/14 05:09:15;;;;;;;2.67;1.00;;;;;;;11.85;100.00;99792.81;5174118;28;20069;-74
2022/09/14 05:11:45;;;;;;;5.25;1.20;;;;;;;11.77;100.00;99794.13;5175834;28;20029;-74
2022/09/14 05:14:16;;;;;;;6.40;1.40;;;;;;;11.72;100.00;99794.38;5175911;28;20038;-75
2022/09/14 05:16:46;;;;;;;3.92;1.23;;;;;;;11.93;100.00;99790.59;5167929;28;20037;-74
2022/09/14 05:19:17;;;;;;;5.18;1.30;;;;;;;11.97;100.00;99779.03;5170304;28;20030;-75
2022/09/14 05:21:47;;;;;;;3.72;1.45;;;;;;;12.06;100.00;99789.03;5171990;28;20022;-74
2022/09/14 05:24:18;;;;;;;6.05;1.42;;;;;;;11.99;100.00;99787.66;5170400;28;20022;-74
2022/09/14 05:26:51;;;;;;;4.97;1.63;;;;;;;12.13;100.00;99795.59;5168370;28;20117;-74
2022/09/14 05:29:21;;;;;;;4.25;1.48;;;;;;;11.92;100.00;99785.47;5166974;28;20040;-74
2022/09/14 05:31:51;;;;;;;3.95;1.35;;;;;;;12.06;100.00;99791.66;5168057;28;20017;-74
2022/09/14 05:34:22;;;;;;;4.60;1.58;;;;;;;12.19;100.00;99779.56;5166415;28;20038;-74
2022/09/14 05:36:52;;;;;;;5.32;1.40;;;;;;;12.12;100.00;99780.00;5169716;28;20500;-75
2022/09/14 05:39:23;;;;;;;12.25;1.60;;;;;;;12.08;100.00;99784.53;5173379;28;20050;-74
2022/09/14 05:41:54;;;;;;;4.75;1.50;;;;;;;12.20;100.00;99783.88;5169007;28;20018;-74
2022/09/14 05:44:24;;;;;;;6.72;1.60;;;;;;;12.08;100.00;99791.53;5169205;28;20041;-74
2022/09/14 05:46:54;;;;;;;7.80;1.52;;;;;;;12.20;100.00;99786.50;5163474;28;20576;-75
2022/09/14 05:49:25;;;;;;;3.90;1.20;;;;;;;12.06;100.00;99782.94;5168306;28;20057;-75
2022/09/14 05:51:55;;;;;;;4.57;1.70;;;;;;;12.21;100.00;99777.72;5165125;28;20745;-74
2022/09/14 05:54:25;;;;;;;5.53;1.30;;;;;;;12.27;100.00;99773.91;5168321;28;20021;-74
2022/09/14 05:56:56;;;;;;;4.20;1.38;;;;;;;12.27;100.00;99771.31;5163571;28;20435;-74
2022/09/14 05:59:30;;;;;;;8.00;1.50;;;;;;;12.35;100.00;99780.44;5170174;28;20033;-75
2022/09/14 06:02:00;;;;;;;3.97;1.30;;;;;;;12.33;100.00;99777.03;5166235;28;20623;-74
2022/09/14 06:04:31;;;;;;;5.60;1.52;;;;;;;12.62;100.00;99778.03;5167936;28;20038;-74
2022/09/14 06:07:01;;;;;;;8.13;1.45;;;;;;;12.58;100.00;99776.50;5170310;28;20080;-75
2022/09/14 06:09:31;;;;;;;4.88;1.45;;;;;;;12.49;100.00;99777.03;5174586;28;20022;-75
2022/09/14 06:12:02;;;;;;;6.07;1.52;;;;;;;12.46;100.00;99774.59;5177397;28;20017;-75
2022/09/14 06:14:32;;;;;;;7.30;1.45;;;;;;;12.46;100.00;99778.03;5171886;28;20026;-74
2022/09/14 06:17:04;;;;;;;5.38;1.48;;;;;;;12.47;100.00;99776.28;5165122;28;20112;-75
2022/09/14 06:19:34;;;;;;;7.07;1.70;;;;;;;12.54;100.00;99777.59;5162474;28;20537;-74
2022/09/14 06:22:05;;;;;;;7.43;1.35;;;;;;;12.73;100.00;99781.75;5164612;28;20034;-73
2022/09/14 06:24:36;;;;;;;6.38;1.65;;;;;;;12.61;100.00;99782.44;5166572;28;20026;-74
2022/09/14 06:27:09;;;;;;;3.63;1.13;;;;;;;12.81;100.00;99779.50;5165328;28;20033;-75
2022/09/14 06:29:39;;;;;;;7.90;1.27;;;;;;;12.75;100.00;99773.75;5166993;28;20584;-74
2022/09/14 06:32:10;;;;;;;5.97;1.40;;;;;;;12.99;100.00;99774.09;5168619;28;20022;-74
2022/09/14 06:34:40;;;;;;;5.28;1.30;;;;;;;13.17;100.00;99772.16;5168639;23;20038;-77
2022/09/14 06:37:10;;;;;;;7.32;1.90;;;;;;;13.15;100.00;99763.53;5140121;28;20094;-76
2022/09/14 06:39:41;;;;;;;4.40;1.38;;;;;;;13.31;100.00;99761.69;5148079;28;20457;-77
2022/09/14 06:42:11;;;;;;;3.58;1.30;;;;;;;13.46;100.00;99758.16;5139452;28;20121;-77
2022/09/14 06:44:41;;;;;;;5.88;1.27;;;;;;;13.93;100.00;99762.19;5148859;28;20027;-77
2022/09/14 06:47:12;;;;;;;5.95;1.40;;;;;;;13.91;100.00;99758.00;5144570;28;20046;-77
2022/09/14 06:49:42;;;;;;;5.43;1.38;;;;;;;14.01;100.00;99757.31;5144326;28;20019;-77
2022/09/14 06:52:12;;;;;;;6.97;1.63;;;;;;;13.96;100.00;99758.53;5146100;28;20031;-77
2022/09/14 06:54:42;;;;;;;11.50;1.95;;;;;;;13.94;100.00;99760.41;5147317;28;20026;-77
2022/09/14 06:57:14;;;;;;;9.38;1.50;;;;;;;13.89;100.00;99765.94;5145570;28;20499;-77
2022/09/14 06:59:44;;;;;;;7.63;1.83;;;;;;;14.00;100.00;99758.25;5148086;28;20517;-77
2022/09/14 07:02:15;;;;;;;8.85;2.10;;;;;;;14.03;100.00;99759.84;5147063;28;20048;-77
2022/09/14 07:04:45;;;;;;;5.80;1.67;;;;;;;14.37;100.00;99760.28;5148245;28;20408;-77
2022/09/14 07:07:16;;;;;;;5.07;1.60;;;;;;;14.49;100.00;99762.13;5143758;28;20046;-77
2022/09/14 07:09:46;;;;;;;4.65;1.50;;;;;;;14.69;100.00;99759.06;5145162;28;20250;-77
2022/09/14 07:12:16;;;;;;;7.93;2.00;;;;;;;14.83;100.00;99764.25;5143948;28;20034;-77
2022/09/14 07:14:47;;;;;;;4.30;1.50;;;;;;;14.80;100.00;99764.44;5134644;28;20061;-77
2022/09/14 07:17:17;;;;;;;9.57;1.70;;;;;;;14.72;100.00;99766.75;5142109;28;20026;-77
2022/09/14 07:19:48;;;;;;;5.85;1.85;;;;;;;14.75;100.00;99758.63;5146581;28;20026;-77
2022/09/14 07:22:18;;;;;;;9.05;2.25;;;;;;;14.87;100.00;99763.94;5146496;28;20031;-77
2022/09/14 07:24:49;;;;;;;9.13;2.03;;;;;;;14.88;100.00;99764.78;5148408;28;20472;-76
2022/09/14 07:27:19;;;;;;;4.88;1.70;;;;;;;15.11;100.00;99758.84;5145537;28;20027;-77
2022/09/14 07:29:49;;;;;;;10.15;2.30;;;;;;;15.25;100.00;99762.25;5152046;28;20049;-77
2022/09/14 07:32:20;;;;;;;6.40;1.95;;;;;;;15.39;100.00;99756.91;5148989;28;20034;-77
2022/09/14 07:34:50;;;;;;;7.07;1.95;;;;;;;15.43;100.00;99755.78;5147064;28;20516;-77
2022/09/14 07:37:20;;;;;;;7.60;2.03;;;;;;;15.75;100.00;99751.75;5146738;28;20373;-77
2022/09/14 07:39:50;;;;;;;6.88;1.90;;;;;;;15.89;100.00;99758.69;5146506;28;20023;-77
2022/09/14 07:42:21;;;;;;;5.88;1.65;;;;;;;16.35;100.00;99759.81;5148516;28;20425;-77
2022/09/14 07:44:51;;;;;;;10.70;1.90;;;;;;;16.44;100.00;99757.34;5154385;28;20109;-77
2022/09/14 07:47:22;;;;;;;6.97;1.90;;;;;;;16.34;100.00;99766.81;5152183;28;20073;-77
2022/09/14 07:49:52;;;;;;;6.97;1.95;;;;;;;15.97;100.00;99764.25;5149600;28;20029;-77
2022/09/14 07:52:22;;;;;;;7.47;1.50;;;;;;;16.38;100.00;99756.94;5153034;28;20361;-77
2022/09/14 07:54:53;;;;;;;6.35;1.70;;;;;;;16.30;100.00;99753.97;5149916;28;20151;-77
2022/09/14 07:57:23;;;;;;;7.65;1.63;;;;;;;16.22;100.00;99759.78;5151017;28;20034;-77
2022/09/14 07:59:53;;;;;;;6.90;1.90;;;;;;;16.28;100.00;99761.13;5149051;28;20501;-77
2022/09/14 08:02:24;;;;;;;8.02;1.85;;;;;;;16.70;100.00;99760.72;5150831;28;20031;-77
2022/09/14 08:04:54;;;;;;;7.32;1.73;;;;;;;16.54;100.00;99753.06;5153292;28;20483;-77
2022/09/14 08:07:24;;;;;;;5.50;1.50;;;;;;;16.91;100.00;99755.53;5147944;28;20034;-77
2022/09/14 08:09:55;;;;;;;7.30;1.80;;;;;;;16.36;100.00;99764.13;5145440;28;20027;-77
2022/09/14 08:12:25;;;;;;;9.18;1.73;;;;;;;16.49;100.00;99752.56;5148304;28;20777;-77
2022/09/14 08:14:55;;;;;;;8.98;1.77;;;;;;;16.27;100.00;99765.59;5144218;28;20034;-77
2022/09/14 08:17:26;;;;;;;8.07;1.73;;;;;;;16.38;100.00;99751.66;5143901;28;20050;-77
2022/09/14 08:19:56;;;;;;;6.28;1.40;;;;;;;16.32;100.00;99758.19;5150134;28;20392;-77
2022/09/14 08:22:26;;;;;;;9.55;1.95;;;;;;;16.18;100.00;99760.97;5147075;28;20038;-77
2022/09/14 08:24:57;;;;;;;6.30;1.75;;;;;;;15.84;100.00;99759.00;5151145;28;20022;-77
2022/09/14 08:27:27;;;;;;;8.10;1.63;;;;;;;15.80;100.00;99748.78;5147206;28;20473;-77
2022/09/14 08:29:57;;;;;;;7.22;1.80;;;;;;;15.92;100.00;99745.28;5151429;28;20030;-77
2022/09/14 08:32:28;;;;;;;9.57;1.45;;;;;;;16.35;100.00;99742.16;5148451;28;20030;-78
2022/09/14 08:34:58;;;;;;;6.70;1.75;;;;;;;16.38;100.00;99736.66;5149923;28;20037;-77
2022/09/14 08:37:28;;;;;;;11.15;1.73;;;;;;;16.18;99.49;99734.59;5149744;28;20034;-77
2022/09/14 08:39:59;;;;;;;8.40;1.60;;;;;;;16.86;96.74;99728.66;5154228;28;20034;-77
2022/09/14 08:42:29;;;;;;;4.50;1.45;;;;;;;17.61;94.41;99735.19;5147101;28;20553;-76
2022/09/14 08:45:04;;;;;;;7.82;1.83;;;;;;;17.78;93.87;99730.28;5151929;28;20541;-77
2022/09/14 08:47:37;;;;;;;5.60;1.27;;;;;;;18.15;91.06;99721.13;5150107;28;20037;-77
2022/09/14 08:50:18;;;;;;;5.07;1.42;;;;;;;18.19;90.99;99724.38;5147846;28;20023;-76
2022/09/14 08:52:52;;;;;;;8.35;1.65;;;;;;;17.67;92.99;99729.44;5149205;28;20023;-77
2022/09/14 08:55:55;;;;;;;6.85;1.65;;;;;;;18.17;91.39;99731.59;5151240;28;20029;-77
2022/09/14 08:58:47;;;;;;;8.85;1.60;;;;;;;18.49;88.21;99736.00;5145077;28;20511;-77
2022/09/14 09:01:34;;;;;;;6.80;1.33;;;;;;;18.90;89.45;99729.00;5148222;28;20038;-77
2022/09/14 09:04:35;;;;;;;5.93;1.50;;;;;;;19.41;90.53;99724.66;5145769;28;20038;-77
2022/09/14 09:07:26;;;;;;;6.97;1.60;;;;;;;19.53;87.26;99723.63;5144633;28;20055;-77
2022/09/14 09:09:57;;;;;;;6.25;1.15;;;;;;;19.13;87.16;99730.56;5140087;28;20313;-77
2022/09/14 09:12:55;;;;;;;7.28;1.42;;;;;;;19.09;87.83;99728.31;5146632;28;20165;-77
2022/09/14 09:15:47;;;;;;;6.40;1.13;;;;;;;19.86;82.01;99720.69;5151248;28;20385;-77
2022/09/14 09:18:28;;;;;;;7.25;1.35;;;;;;;19.08;87.20;99716.84;5147419;28;20061;-77
2022/09/14 09:21:04;;;;;;;4.13;0.98;;;;;;;18.89;87.52;99716.72;5144291;28;20050;-77
2022/09/14 09:23:35;;;;;;;6.32;1.20;;;;;;;19.30;85.00;99716.75;5150039;28;20045;-77
2022/09/14 09:26:14;;;;;;;5.13;1.00;;;;;;;19.28;83.83;99712.56;5148053;28;20039;-76
2022/09/14 09:28:48;;;;;;;7.07;0.95;;;;;;;20.20;81.30;99711.50;5147641;28;20026;-77
2022/09/14 09:31:35;;;;;;;3.58;0.93;;;;;;;19.24;84.23;99709.34;5148492;28;20051;-77
2022/09/14 09:34:05;;;;;;;6.35;1.13;;;;;;;19.45;86.87;99693.44;5160320;28;20062;-77
2022/09/14 09:36:39;;;;;;;8.85;1.17;;;;;;;19.29;85.45;99704.47;5147636;28;20112;-77
2022/09/14 09:39:11;;;;;;;7.00;0.90;;;;;;;19.69;86.65;99697.47;5138217;28;20400;-77
2022/09/14 09:41:54;;;;;;;8.68;0.98;;;;;;;19.77;85.69;99692.31;5155708;28;20066;-77
2022/09/14 09:44:24;;;;;;;8.75;1.17;;;;;;;19.45;86.87;99694.25;5154349;28;20030;-77
2022/09/14 09:46:58;;;;;;;9.88;1.38;;;;;;;19.11;89.84;99700.72;5146316;28;20038;-77
2022/09/14 09:49:35;;;;;;;6.63;1.17;;;;;;;20.12;80.84;99700.69;5143226;28;20035;-77
2022/09/14 09:52:12;;;;;;;6.97;1.08;;;;;;;20.05;83.62;99699.59;5148244;28;20442;-77
2022/09/14 09:54:51;;;;;;;5.45;1.08;;;;;;;20.55;83.49;99692.41;5148853;28;20117;-76
2022/09/14 09:57:28;;;;;;;5.93;1.05;;;;;;;20.47;79.81;99690.44;5146006;28;20455;-77
2022/09/14 10:00:24;;;;;;;8.38;1.30;;;;;;;20.10;83.67;99692.03;5142247;28;20031;-77
2022/09/14 10:02:56;;;;;;;6.05;1.08;;;;;;;20.89;74.63;99678.63;5147982;28;20069;-76
2022/09/14 10:05:30;;;;;;;7.72;1.75;;;;;;;21.14;69.85;99670.88;5143059;28;20039;-77
2022/09/14 10:08:03;;;;;;;6.88;1.25;;;;;;;20.53;74.40;99666.00;5151827;28;20022;-77
2022/09/14 10:10:33;;;;;;;9.32;1.42;;;;;;;20.64;74.28;99660.53;5156305;28;20435;-77
2022/09/14 10:13:13;;;;;;;5.10;1.03;;;;;;;20.66;76.06;99663.06;5158201;28;20085;-77
2022/09/14 10:15:45;;;;;;;5.35;1.15;;;;;;;20.19;75.13;99656.75;5142358;28;20034;-76
2022/09/14 10:18:17;;;;;;;7.80;1.25;;;;;;;19.53;77.30;99660.00;5138269;28;20105;-77
2022/09/14 10:20:50;;;;;;;5.00;1.35;;;;;;;19.97;75.97;99658.75;5147165;28;20030;-76
2022/09/14 10:23:25;;;;;;;4.80;1.10;;;;;;;20.08;75.04;99651.53;5146323;28;20018;-77
2022/09/14 10:26:10;;;;;;;6.95;1.35;;;;;;;19.84;77.05;99643.09;5145132;28;20027;-77
2022/09/14 10:28:46;;;;;;;7.35;1.10;;;;;;;20.06;76.45;99657.94;5144016;28;20480;-77
2022/09/14 10:31:19;;;;;;;5.65;1.17;;;;;;;19.81;76.15;99663.72;5146398;28;20073;-77
2022/09/14 10:33:56;;;;;;;8.45;1.48;;;;;;;19.91;75.91;99657.47;5140724;28;20026;-77
2022/09/14 10:36:29;;;;;;;6.88;1.05;;;;;;;19.78;78.59;99669.31;5137401;28;20053;-75
2022/09/14 10:39:20;;;;;;;4.82;1.30;;;;;;;20.00;81.02;99672.59;5141587;28;20032;-76
2022/09/14 10:41:56;;;;;;;6.47;1.35;;;;;;;19.52;80.83;99668.06;5146697;28;20531;-77
2022/09/14 10:44:29;;;;;;;6.85;1.25;;;;;;;20.08;76.96;99679.88;5145461;28;20069;-77
2022/09/14 10:47:08;;;;;;;6.20;1.08;;;;;;;20.21;76.46;99676.03;5147856;28;20488;-77
2022/09/14 10:50:22;;;;;;;5.35;1.42;;;;;;;20.10;79.17;99676.13;5146777;28;20061;-76
2022/09/14 10:53:27;;;;;;;6.63;1.05;;;;;;;20.32;80.50;99667.91;5148110;28;20026;-77
2022/09/14 10:56:22;;;;;;;4.72;1.30;;;;;;;20.40;78.49;99656.63;5134762;28;20461;-77
2022/09/14 10:59:01;;;;;;;5.60;1.00;;;;;;;20.29;75.62;99649.63;5143532;28;20219;-77
2022/09/14 11:01:50;;;;;;;4.55;0.93;;;;;;;20.25;77.36;99653.53;5143660;28;20496;-77
2022/09/14 11:04:50;;;;;;;5.63;1.13;;;;;;;19.88;76.50;99655.09;5149702;28;20381;-76
2022/09/14 11:07:29;;;;;;;3.17;0.95;;;;;;;19.66;80.04;99660.63;5150796;28;20158;-76
2022/09/14 11:10:19;;;;;;;6.60;0.93;;;;;;;19.47;78.10;99664.97;5155689;28;20476;-77
2022/09/14 11:13:20;;;;;;;5.22;1.05;;;;;;;19.54;79.89;99655.50;5160258;28;20026;-76
2022/09/14 11:16:29;;;;;;;5.30;1.25;;;;;;;19.80;78.79;99639.00;5152560;28;20030;-76
2022/09/14 11:19:09;;;;;;;4.63;0.90;;;;;;;19.94;75.01;99633.31;5151650;28;20423;-77
2022/09/14 11:21:55;;;;;;;5.47;1.15;;;;;;;19.70;75.68;99635.50;5151552;28;20038;-76
2022/09/14 11:24:38;;;;;;;6.05;1.10;;;;;;;19.82;75.14;99638.88;5145685;28;20477;-77
2022/09/14 11:27:25;;;;;;;5.53;0.93;;;;;;;19.23;76.45;99638.78;5150851;28;20378;-76
2022/09/14 11:30:21;;;;;;;8.88;1.23;;;;;;;19.36;76.20;99635.91;5144940;28;20417;-77
2022/09/14 11:32:58;;;;;;;5.22;1.00;;;;;;;19.52;76.07;99637.09;5150823;28;20366;-76
2022/09/14 11:35:53;;;;;;;6.53;0.90;;;;;;;19.25;77.72;99642.13;5145935;28;20030;-76
2022/09/14 11:38:31;;;;;;;6.97;1.00;;;;;;;19.35;76.26;99637.72;5153517;28;20487;-76
2022/09/14 11:41:29;;;;;;;8.15;1.20;;;;;;;19.19;76.78;99632.06;5157418;28;20037;-76
2022/09/14 11:44:04;;;;;;;4.35;1.20;;;;;;;19.44;77.64;99642.22;5153867;28;20489;-76
2022/09/14 11:46:50;;;;;;;4.63;1.20;;;;;;;19.75;75.11;99638.56;5150203;28;20026;-74
2022/09/14 11:49:27;;;;;;;4.03;0.90;;;;;;;19.50;77.32;99631.09;5151956;28;20073;-76
2022/09/14 11:52:21;;;;;;;6.88;1.25;;;;;;;19.50;77.16;99633.75;5146122;28;20484;-77
2022/09/14 11:54:53;;;;;;;6.00;1.00;;;;;;;19.75;76.66;99625.31;5144524;28;20464;-74
2022/09/14 11:57:29;;;;;;;6.43;1.20;;;;;;;19.36;76.65;99626.16;5151902;28;20029;-76
2022/09/14 12:00:05;;;;;;;6.75;1.33;;;;;;;18.85;77.63;99624.41;5145806;28;20062;-76
2022/09/14 12:02:35;;;;;;;5.20;1.15;;;;;;;19.00;77.92;99620.47;5150983;28;20027;-76
2022/09/14 12:05:06;;;;;;;7.27;1.13;;;;;;;19.07;78.77;99609.22;5151278;28;20034;-76